createdAt,value
2022-12-22T00:00:18.646Z,8.80
2022-12-22T00:01:18.740Z,8.80
2022-12-22T00:02:18.963Z,8.79
2022-12-22T00:03:19.168Z,8.82
2022-12-22T00:04:19.264Z,8.78
2022-12-22T00:05:19.497Z,8.76
2022-12-22T00:06:19.469Z,8.71
2022-12-22T00:07:19.523Z,8.71
2022-12-22T00:08:19.715Z,8.70
2022-12-22T00:09:19.815Z,8.65
2022-12-22T00:10:19.942Z,8.65
2022-12-22T00:11:20.269Z,8.65
2022-12-22T00:12:20.217Z,8.67
2022-12-22T00:13:20.375Z,8.64
2022-12-22T00:14:20.533Z,8.65
2022-12-22T00:15:20.692Z,8.70
2022-12-22T00:16:20.907Z,8.71
2022-12-22T00:17:21.011Z,8.70
2022-12-22T00:18:21.303Z,8.71
2022-12-22T00:19:21.280Z,8.76
2022-12-22T00:20:21.467Z,8.75
2022-12-22T00:21:21.699Z,8.73
2022-12-22T00:22:21.832Z,8.71
2022-12-22T00:23:22.000Z,8.70
2022-12-22T00:24:22.041Z,8.70
2022-12-22T00:25:22.170Z,8.71
2022-12-22T00:26:22.388Z,8.75
2022-12-22T00:27:22.449Z,8.71
2022-12-22T00:28:22.701Z,8.75
2022-12-22T00:29:22.788Z,8.76
2022-12-22T00:30:23.007Z,8.76
2022-12-22T00:31:23.100Z,8.79
2022-12-22T00:32:23.181Z,8.79
2022-12-22T00:33:23.408Z,8.79
2022-12-22T00:34:25.682Z,8.76
2022-12-22T00:35:24.672Z,8.78
2022-12-22T00:36:23.812Z,8.79
2022-12-22T00:37:23.937Z,8.78
2022-12-22T00:38:24.091Z,8.76
2022-12-22T00:39:24.221Z,8.76
2022-12-22T00:40:24.386Z,8.79
2022-12-22T00:41:24.456Z,8.79
2022-12-22T00:42:24.587Z,8.80
2022-12-22T00:43:24.717Z,8.80
2022-12-22T00:44:24.837Z,8.79
2022-12-22T00:45:24.995Z,8.75
2022-12-22T00:46:25.177Z,8.78
2022-12-22T00:47:25.241Z,8.78
2022-12-22T00:48:25.359Z,8.78
2022-12-22T00:49:25.480Z,8.79
2022-12-22T00:50:25.651Z,8.82
2022-12-22T00:51:25.726Z,8.83
2022-12-22T00:52:25.887Z,8.85
2022-12-22T00:53:26.038Z,8.86
2022-12-22T00:54:26.233Z,8.85
2022-12-22T00:55:26.326Z,8.83
2022-12-22T00:56:26.521Z,8.82
2022-12-22T00:57:26.640Z,8.82
2022-12-22T00:58:26.768Z,8.85
2022-12-22T00:59:26.895Z,8.82
2022-12-22T01:00:27.020Z,8.85
2022-12-22T01:01:27.238Z,8.82
2022-12-22T01:02:27.476Z,8.82
2022-12-22T01:03:27.501Z,8.83
2022-12-22T01:04:27.607Z,8.83
2022-12-22T01:05:27.733Z,8.82
2022-12-22T01:06:27.898Z,8.82
2022-12-22T01:07:28.020Z,8.83
2022-12-22T01:08:28.155Z,8.83
2022-12-22T01:09:28.301Z,8.83
2022-12-22T01:10:28.430Z,8.83
2022-12-22T01:11:28.576Z,8.82
2022-12-22T01:12:28.721Z,8.82
2022-12-22T01:13:28.897Z,8.82
2022-12-22T01:14:29.044Z,8.82
2022-12-22T01:15:29.183Z,8.86
2022-12-22T01:16:29.403Z,8.85
2022-12-22T01:17:29.418Z,8.85
2022-12-22T01:18:29.559Z,8.86
2022-12-22T01:19:29.637Z,8.86
2022-12-22T01:20:29.768Z,8.80
2022-12-22T01:21:29.898Z,8.83
2022-12-22T01:22:30.068Z,8.86
2022-12-22T01:23:30.206Z,8.83
2022-12-22T01:24:30.333Z,8.85
2022-12-22T01:25:30.455Z,8.83
2022-12-22T01:26:30.577Z,8.85
2022-12-22T01:27:30.688Z,8.83
2022-12-22T01:28:30.851Z,8.83
2022-12-22T01:29:30.978Z,8.85
2022-12-22T01:30:31.180Z,8.86
2022-12-22T01:31:31.323Z,8.88
2022-12-22T01:32:31.490Z,8.86
2022-12-22T01:33:31.643Z,8.88
2022-12-22T01:34:31.775Z,8.91
2022-12-22T01:35:31.841Z,8.89
2022-12-22T01:36:31.968Z,8.88
2022-12-22T01:37:32.105Z,8.86
2022-12-22T01:38:32.218Z,8.88
2022-12-22T01:39:32.495Z,8.89
2022-12-22T01:40:32.455Z,8.91
2022-12-22T01:41:32.562Z,8.89
2022-12-22T01:42:32.698Z,8.89
2022-12-22T01:43:32.851Z,8.88
2022-12-22T01:44:33.010Z,8.86
2022-12-22T01:45:33.117Z,8.88
2022-12-22T01:46:33.306Z,8.88
2022-12-22T01:47:33.345Z,8.86
2022-12-22T01:48:33.495Z,8.86
2022-12-22T01:49:33.606Z,8.85
2022-12-22T01:50:33.712Z,8.83
2022-12-22T01:51:33.857Z,8.86
2022-12-22T01:52:34.024Z,8.86
2022-12-22T01:53:34.150Z,8.86
2022-12-22T01:54:34.295Z,8.85
2022-12-22T01:55:34.425Z,8.86
2022-12-22T01:56:34.553Z,8.85
2022-12-22T01:57:34.673Z,8.88
2022-12-22T01:58:34.837Z,8.88
2022-12-22T01:59:35.041Z,8.85
2022-12-22T02:00:35.092Z,8.86
2022-12-22T02:01:35.309Z,8.86
2022-12-22T02:02:35.636Z,8.86
2022-12-22T02:03:35.519Z,8.86
2022-12-22T02:04:35.592Z,8.85
2022-12-22T02:05:35.697Z,8.82
2022-12-22T02:06:35.824Z,8.82
2022-12-22T02:07:35.997Z,8.82
2022-12-22T02:08:36.145Z,8.79
2022-12-22T02:09:36.311Z,8.78
2022-12-22T02:10:36.443Z,8.78
2022-12-22T02:11:36.602Z,8.78
2022-12-22T02:12:36.731Z,8.76
2022-12-22T02:13:37.446Z,8.75
2022-12-22T02:14:37.049Z,8.73
2022-12-22T02:15:37.244Z,8.71
2022-12-22T02:16:37.361Z,8.75
2022-12-22T02:17:37.451Z,8.71
2022-12-22T02:18:37.598Z,8.73
2022-12-22T02:19:37.734Z,8.75
2022-12-22T02:20:37.872Z,8.76
2022-12-22T02:21:38.011Z,8.79
2022-12-22T02:22:38.172Z,8.83
2022-12-22T02:23:38.325Z,8.85
2022-12-22T02:24:38.452Z,8.85
2022-12-22T02:25:38.573Z,8.83
2022-12-22T02:26:38.761Z,8.83
2022-12-22T02:27:38.854Z,8.82
2022-12-22T02:28:38.963Z,8.80
2022-12-22T02:29:39.063Z,8.78
2022-12-22T02:30:39.239Z,8.80
2022-12-22T02:31:39.438Z,8.79
2022-12-22T02:32:39.520Z,8.80
2022-12-22T02:33:39.751Z,8.79
2022-12-22T02:34:39.871Z,8.82
2022-12-22T02:35:39.968Z,8.83
2022-12-22T02:36:40.160Z,8.83
2022-12-22T02:37:40.233Z,8.83
2022-12-22T02:38:40.343Z,8.82
2022-12-22T02:39:40.471Z,8.80
2022-12-22T02:40:41.851Z,8.82
2022-12-22T02:41:40.710Z,8.83
2022-12-22T02:42:40.885Z,8.85
2022-12-22T02:43:41.040Z,8.83
2022-12-22T02:44:41.271Z,8.86
2022-12-22T02:45:41.337Z,8.86
2022-12-22T02:46:41.579Z,8.86
2022-12-22T02:47:41.661Z,8.86
2022-12-22T02:48:41.803Z,8.86
2022-12-22T02:49:41.947Z,8.86
2022-12-22T02:50:42.082Z,8.85
2022-12-22T02:51:42.238Z,8.86
2022-12-22T02:52:42.390Z,8.85
2022-12-22T02:53:42.537Z,8.83
2022-12-22T02:54:42.654Z,8.85
2022-12-22T02:55:42.783Z,8.86
2022-12-22T02:56:42.970Z,8.86
2022-12-22T02:57:44.050Z,8.85
2022-12-22T02:58:43.383Z,8.83
2022-12-22T02:59:43.456Z,8.85
2022-12-22T03:00:43.558Z,8.86
2022-12-22T03:01:43.925Z,8.86
2022-12-22T03:02:43.944Z,8.86
2022-12-22T03:03:44.043Z,8.88
2022-12-22T03:04:44.052Z,8.86
2022-12-22T03:05:44.180Z,8.86
2022-12-22T03:06:44.319Z,8.89
2022-12-22T03:07:44.456Z,8.89
2022-12-22T03:08:44.617Z,8.88
2022-12-22T03:09:44.790Z,8.89
2022-12-22T03:10:44.888Z,8.89
2022-12-22T03:11:45.015Z,8.89
2022-12-22T03:12:45.135Z,8.91
2022-12-22T03:13:45.271Z,8.91
2022-12-22T03:14:45.399Z,8.91
2022-12-22T03:15:45.563Z,8.89
2022-12-22T03:16:45.658Z,8.88
2022-12-22T03:17:45.790Z,8.88
2022-12-22T03:18:45.937Z,8.88
2022-12-22T03:19:46.077Z,8.86
2022-12-22T03:20:46.223Z,8.88
2022-12-22T03:21:46.348Z,8.88
2022-12-22T03:22:46.467Z,8.88
2022-12-22T03:23:46.904Z,8.91
2022-12-22T03:24:46.774Z,8.88
2022-12-22T03:25:46.936Z,8.91
2022-12-22T03:26:47.088Z,8.93
2022-12-22T03:27:47.215Z,8.91
2022-12-22T03:28:47.326Z,8.91
2022-12-22T03:29:47.471Z,8.91
2022-12-22T03:30:47.705Z,8.91
2022-12-22T03:31:47.777Z,8.91
2022-12-22T03:32:47.827Z,8.91
2022-12-22T03:33:47.983Z,8.93
2022-12-22T03:34:48.116Z,8.93
2022-12-22T03:35:48.306Z,8.91
2022-12-22T03:36:48.373Z,8.93
2022-12-22T03:37:48.505Z,8.93
2022-12-22T03:38:48.657Z,8.93
2022-12-22T03:39:48.771Z,8.91
2022-12-22T03:40:48.919Z,8.94
2022-12-22T03:41:49.092Z,8.94
2022-12-22T03:42:49.304Z,8.93
2022-12-22T03:43:49.403Z,8.94
2022-12-22T03:44:49.554Z,8.94
2022-12-22T03:45:49.695Z,8.96
2022-12-22T03:46:49.848Z,8.93
2022-12-22T03:47:50.716Z,8.96
2022-12-22T03:48:50.127Z,8.96
2022-12-22T03:49:50.174Z,8.96
2022-12-22T03:50:50.307Z,8.93
2022-12-22T03:51:50.474Z,8.94
2022-12-22T03:52:50.589Z,8.96
2022-12-22T03:53:50.714Z,8.96
2022-12-22T03:54:50.833Z,8.93
2022-12-22T03:55:50.963Z,8.96
2022-12-22T03:56:51.102Z,8.96
2022-12-22T03:57:51.265Z,8.96
2022-12-22T03:58:51.412Z,8.97
2022-12-22T03:59:51.583Z,8.96
2022-12-22T04:00:51.801Z,8.96
2022-12-22T04:01:52.139Z,8.93
2022-12-22T04:02:52.105Z,8.96
2022-12-22T04:03:52.148Z,8.96
2022-12-22T04:04:52.315Z,8.96
2022-12-22T04:05:52.440Z,8.93
2022-12-22T04:06:52.583Z,8.94
2022-12-22T04:07:52.722Z,8.94
2022-12-22T04:08:52.836Z,8.96
2022-12-22T04:09:53.020Z,8.94
2022-12-22T04:10:53.132Z,8.96
2022-12-22T04:11:53.263Z,8.96
2022-12-22T04:12:53.414Z,8.96
2022-12-22T04:13:53.550Z,8.96
2022-12-22T04:14:53.721Z,8.94
2022-12-22T04:15:53.891Z,8.97
2022-12-22T04:16:54.053Z,8.98
2022-12-22T04:17:54.170Z,8.98
2022-12-22T04:18:54.292Z,8.96
2022-12-22T04:19:54.412Z,8.96
2022-12-22T04:20:54.544Z,8.94
2022-12-22T04:21:54.712Z,8.97
2022-12-22T04:22:54.837Z,8.97
2022-12-22T04:23:54.942Z,8.96
2022-12-22T04:24:55.022Z,8.97
2022-12-22T04:25:55.191Z,8.97
2022-12-22T04:26:55.350Z,8.97
2022-12-22T04:27:55.523Z,9.00
2022-12-22T04:28:55.658Z,8.97
2022-12-22T04:29:55.744Z,8.97
2022-12-22T04:30:55.926Z,9.00
2022-12-22T04:31:56.221Z,9.00
2022-12-22T04:32:56.225Z,8.98
2022-12-22T04:33:56.414Z,8.97
2022-12-22T04:34:56.498Z,8.98
2022-12-22T04:35:56.654Z,8.98
2022-12-22T04:37:04.419Z,9.00
2022-12-22T04:37:57.930Z,9.00
2022-12-22T04:38:57.077Z,9.00
2022-12-22T04:39:57.230Z,9.00
2022-12-22T04:40:57.371Z,8.97
2022-12-22T04:41:57.618Z,8.98
2022-12-22T04:42:57.639Z,8.97
2022-12-22T04:43:57.792Z,8.98
2022-12-22T04:44:57.951Z,8.98
2022-12-22T04:45:58.140Z,9.00
2022-12-22T04:46:58.217Z,9.00
2022-12-22T04:47:59.080Z,8.98
2022-12-22T04:49:00.456Z,8.98
2022-12-22T04:49:58.691Z,8.97
2022-12-22T04:50:58.846Z,8.98
2022-12-22T04:51:58.970Z,8.98
2022-12-22T04:52:59.140Z,8.97
2022-12-22T04:54:07.882Z,8.94
2022-12-22T04:54:59.484Z,8.96
2022-12-22T04:55:59.654Z,8.96
2022-12-22T04:56:59.777Z,8.94
2022-12-22T04:57:59.916Z,8.94
2022-12-22T04:59:00.076Z,8.93
2022-12-22T05:00:00.243Z,8.93
2022-12-22T05:01:00.616Z,8.91
2022-12-22T05:02:00.690Z,8.85
2022-12-22T05:03:00.754Z,8.91
2022-12-22T05:04:00.800Z,8.91
2022-12-22T05:05:00.915Z,8.94
2022-12-22T05:06:01.065Z,8.96
2022-12-22T05:07:01.188Z,8.94
2022-12-22T05:08:01.312Z,8.96
2022-12-22T05:09:01.416Z,8.96
2022-12-22T05:10:01.567Z,8.96
2022-12-22T05:11:01.696Z,8.97
2022-12-22T05:12:01.823Z,8.96
2022-12-22T05:13:01.934Z,8.97
2022-12-22T05:14:07.070Z,8.98
2022-12-22T05:15:03.234Z,9.00
2022-12-22T05:16:02.355Z,9.00
2022-12-22T05:17:02.498Z,8.98
2022-12-22T05:18:02.651Z,8.98
2022-12-22T05:19:02.772Z,8.98
2022-12-22T05:20:02.887Z,9.00
2022-12-22T05:21:03.024Z,9.01
2022-12-22T05:22:03.144Z,9.00
2022-12-22T05:23:03.973Z,9.01
2022-12-22T05:24:03.443Z,9.00
2022-12-22T05:25:03.548Z,9.03
2022-12-22T05:26:03.687Z,9.01
2022-12-22T05:27:03.774Z,9.01
2022-12-22T05:28:03.912Z,9.03
2022-12-22T05:29:03.999Z,9.01
2022-12-22T05:30:04.129Z,9.03
2022-12-22T05:31:04.311Z,9.03
2022-12-22T05:32:04.360Z,9.04
2022-12-22T05:33:04.503Z,9.04
2022-12-22T05:34:04.655Z,9.04
2022-12-22T05:35:04.796Z,9.03
2022-12-22T05:36:04.926Z,9.03
2022-12-22T05:37:05.030Z,9.04
2022-12-22T05:38:05.226Z,9.04
2022-12-22T05:39:05.374Z,9.04
2022-12-22T05:40:05.477Z,9.08
2022-12-22T05:41:05.638Z,9.04
2022-12-22T05:42:05.744Z,9.06
2022-12-22T05:43:05.903Z,9.06
2022-12-22T05:44:06.079Z,9.08
2022-12-22T05:45:06.171Z,9.04
2022-12-22T05:46:06.286Z,9.08
2022-12-22T05:47:06.396Z,9.06
2022-12-22T05:48:06.501Z,9.06
2022-12-22T05:49:06.714Z,9.08
2022-12-22T05:50:06.789Z,9.08
2022-12-22T05:51:06.877Z,9.06
2022-12-22T05:52:07.009Z,9.06
2022-12-22T05:53:07.110Z,9.06
2022-12-22T05:54:07.272Z,9.04
2022-12-22T05:55:07.447Z,9.06
2022-12-22T05:56:07.531Z,9.06
2022-12-22T05:57:07.672Z,9.04
2022-12-22T05:58:08.004Z,9.06
2022-12-22T05:59:07.901Z,9.03
2022-12-22T06:00:08.068Z,9.01
2022-12-22T06:01:08.475Z,9.00
2022-12-22T06:02:08.497Z,9.00
2022-12-22T06:03:08.671Z,8.98
2022-12-22T06:04:08.822Z,8.96
2022-12-22T06:05:08.793Z,8.93
2022-12-22T06:06:08.972Z,8.96
2022-12-22T06:07:09.395Z,8.98
2022-12-22T06:08:09.277Z,9.01
2022-12-22T06:09:09.412Z,9.01
2022-12-22T06:10:12.332Z,9.03
2022-12-22T06:11:09.833Z,9.03
2022-12-22T06:12:09.916Z,9.03
2022-12-22T06:13:10.011Z,9.04
2022-12-22T06:14:10.155Z,9.03
2022-12-22T06:15:11.235Z,9.03
2022-12-22T06:16:10.517Z,8.98
2022-12-22T06:17:10.612Z,9.01
2022-12-22T06:18:10.807Z,8.98
2022-12-22T06:19:10.923Z,8.96
2022-12-22T06:20:11.054Z,8.96
2022-12-22T06:21:11.196Z,8.94
2022-12-22T06:22:11.375Z,8.94
2022-12-22T06:23:11.812Z,8.94
2022-12-22T06:24:11.621Z,8.93
2022-12-22T06:25:17.751Z,8.91
2022-12-22T06:26:12.948Z,8.91
2022-12-22T06:27:12.070Z,8.89
2022-12-22T06:28:12.208Z,8.88
2022-12-22T06:29:12.300Z,8.88
2022-12-22T06:30:12.431Z,8.86
2022-12-22T06:31:12.644Z,8.85
2022-12-22T06:32:12.772Z,8.82
2022-12-22T06:33:12.851Z,8.80
2022-12-22T06:34:13.021Z,8.79
2022-12-22T06:35:13.206Z,8.79
2022-12-22T06:36:13.317Z,8.80
2022-12-22T06:37:13.489Z,8.82
2022-12-22T06:38:13.709Z,8.86
2022-12-22T06:39:13.789Z,8.88
2022-12-22T06:40:13.877Z,8.89
2022-12-22T06:41:14.017Z,8.91
2022-12-22T06:42:14.127Z,8.93
2022-12-22T06:43:14.317Z,8.91
2022-12-22T06:44:14.463Z,8.93
2022-12-22T06:45:14.614Z,8.93
2022-12-22T06:46:14.763Z,8.94
2022-12-22T06:47:14.847Z,8.93
2022-12-22T06:48:14.996Z,8.93
2022-12-22T06:49:15.860Z,8.96
2022-12-22T06:50:15.356Z,8.94
2022-12-22T06:51:15.416Z,8.94
2022-12-22T06:52:15.560Z,8.98
2022-12-22T06:53:15.672Z,9.01
2022-12-22T06:54:19.557Z,9.01
2022-12-22T06:55:18.416Z,9.04
2022-12-22T06:56:16.149Z,9.06
2022-12-22T06:57:16.310Z,9.04
2022-12-22T06:58:16.515Z,9.06
2022-12-22T06:59:16.598Z,9.06
2022-12-22T07:00:17.461Z,9.06
2022-12-22T07:01:16.957Z,9.06
2022-12-22T07:02:17.220Z,9.06
2022-12-22T07:03:17.433Z,9.08
2022-12-22T07:04:17.352Z,9.06
2022-12-22T07:05:17.505Z,9.08
2022-12-22T07:06:17.608Z,9.10
2022-12-22T07:07:17.746Z,9.13
2022-12-22T07:08:17.891Z,9.13
2022-12-22T07:09:18.077Z,9.12
2022-12-22T07:10:18.229Z,9.13
2022-12-22T07:11:18.315Z,9.13
2022-12-22T07:12:18.457Z,9.13
2022-12-22T07:13:18.608Z,9.12
2022-12-22T07:14:18.779Z,9.13
2022-12-22T07:15:18.970Z,9.12
2022-12-22T07:16:19.118Z,9.12
2022-12-22T07:17:19.262Z,9.12
2022-12-22T07:18:19.385Z,9.10
2022-12-22T07:19:19.544Z,9.12
2022-12-22T07:20:19.695Z,9.12
2022-12-22T07:21:19.855Z,9.12
2022-12-22T07:22:22.903Z,9.13
2022-12-22T07:23:21.153Z,9.13
2022-12-22T07:24:20.279Z,9.13
2022-12-22T07:25:20.429Z,9.16
2022-12-22T07:26:20.564Z,9.15
2022-12-22T07:27:20.759Z,9.17
2022-12-22T07:28:21.489Z,9.19
2022-12-22T07:29:20.993Z,9.20
2022-12-22T07:30:21.133Z,9.22
2022-12-22T07:31:21.368Z,9.20
2022-12-22T07:32:21.380Z,9.17
2022-12-22T07:33:21.511Z,9.20
2022-12-22T07:34:21.646Z,9.22
2022-12-22T07:35:21.784Z,9.19
2022-12-22T07:36:21.874Z,9.22
2022-12-22T07:37:22.055Z,9.20
2022-12-22T07:38:22.104Z,9.20
2022-12-22T07:39:22.233Z,9.19
2022-12-22T07:40:22.356Z,9.20
2022-12-22T07:41:22.487Z,9.20
2022-12-22T07:42:22.651Z,9.20
2022-12-22T07:43:22.812Z,9.19
2022-12-22T07:44:22.964Z,9.19
2022-12-22T07:45:23.106Z,9.20
2022-12-22T07:46:23.230Z,9.22
2022-12-22T07:47:23.404Z,9.23
2022-12-22T07:48:23.535Z,9.22
2022-12-22T07:49:23.685Z,9.22
2022-12-22T07:50:23.833Z,9.22
2022-12-22T07:51:23.984Z,9.22
2022-12-22T07:52:24.118Z,9.22
2022-12-22T07:53:24.232Z,9.23
2022-12-22T07:54:24.375Z,9.24
2022-12-22T07:55:24.542Z,9.23
2022-12-22T07:56:24.663Z,9.24
2022-12-22T07:57:24.793Z,9.22
2022-12-22T07:58:24.947Z,9.26
2022-12-22T07:59:25.046Z,9.27
2022-12-22T08:00:25.285Z,9.27
2022-12-22T08:01:25.473Z,9.30
2022-12-22T08:02:25.691Z,9.30
2022-12-22T08:03:25.703Z,9.27
2022-12-22T08:04:25.888Z,9.31
2022-12-22T08:05:25.994Z,9.30
2022-12-22T08:06:26.122Z,9.31
2022-12-22T08:07:26.305Z,9.34
2022-12-22T08:08:26.430Z,9.34
2022-12-22T08:09:26.582Z,9.32
2022-12-22T08:10:26.719Z,9.34
2022-12-22T08:11:26.854Z,9.34
2022-12-22T08:12:27.094Z,9.37
2022-12-22T08:13:27.173Z,9.34
2022-12-22T08:14:27.320Z,9.35
2022-12-22T08:15:27.466Z,9.37
2022-12-22T08:16:27.707Z,9.34
2022-12-22T08:17:27.731Z,9.35
2022-12-22T08:18:27.921Z,9.37
2022-12-22T08:19:28.031Z,9.35
2022-12-22T08:20:28.115Z,9.40
2022-12-22T08:21:28.290Z,9.37
2022-12-22T08:22:28.452Z,9.37
2022-12-22T08:23:28.600Z,9.35
2022-12-22T08:24:28.731Z,9.37
2022-12-22T08:25:28.880Z,9.35
2022-12-22T08:26:29.021Z,9.35
2022-12-22T08:27:29.150Z,9.35
2022-12-22T08:28:29.298Z,9.35
2022-12-22T08:29:29.509Z,9.35
2022-12-22T08:30:29.590Z,9.35
2022-12-22T08:31:29.765Z,9.37
2022-12-22T08:32:29.848Z,9.38
2022-12-22T08:33:30.072Z,9.34
2022-12-22T08:34:30.155Z,9.35
2022-12-22T08:35:30.306Z,9.34
2022-12-22T08:36:30.409Z,9.37
2022-12-22T08:37:31.281Z,9.35
2022-12-22T08:38:30.719Z,9.35
2022-12-22T08:39:30.848Z,9.35
2022-12-22T08:40:31.013Z,9.37
2022-12-22T08:41:31.170Z,9.37
2022-12-22T08:42:31.263Z,9.40
2022-12-22T08:43:31.961Z,9.40
2022-12-22T08:44:31.568Z,9.38
2022-12-22T08:45:32.282Z,9.38
2022-12-22T08:46:32.279Z,9.40
2022-12-22T08:47:32.705Z,9.40
2022-12-22T08:48:32.073Z,9.42
2022-12-22T08:49:32.291Z,9.40
2022-12-22T08:50:33.090Z,9.41
2022-12-22T08:51:32.542Z,9.42
2022-12-22T08:52:32.658Z,9.42
2022-12-22T08:54:33.971Z,9.48
2022-12-22T08:55:33.851Z,9.50
2022-12-22T08:56:33.289Z,9.50
2022-12-22T08:57:33.400Z,9.50
2022-12-22T08:58:34.158Z,9.52
2022-12-22T08:59:33.713Z,9.53
2022-12-22T09:00:33.814Z,9.53
2022-12-22T09:01:34.077Z,9.53
2022-12-22T09:02:34.269Z,9.53
2022-12-22T09:03:34.297Z,9.56
2022-12-22T09:04:34.441Z,9.60
2022-12-22T09:05:34.596Z,9.60
2022-12-22T09:06:40.597Z,9.62
2022-12-22T09:07:35.924Z,9.58
2022-12-22T09:08:34.978Z,9.60
2022-12-22T09:09:35.107Z,9.59
2022-12-22T09:10:35.246Z,9.60
2022-12-22T09:11:35.449Z,9.56
2022-12-22T09:12:35.547Z,9.59
2022-12-22T09:13:35.679Z,9.62
2022-12-22T09:14:36.524Z,9.65
2022-12-22T09:15:35.973Z,9.65
2022-12-22T09:16:36.140Z,9.68
2022-12-22T09:17:36.186Z,9.74
2022-12-22T09:18:36.355Z,9.75
2022-12-22T09:19:36.508Z,9.78
2022-12-22T09:20:36.640Z,9.78
2022-12-22T09:21:36.779Z,9.80
2022-12-22T09:22:36.895Z,9.83
2022-12-22T09:23:37.126Z,9.83
2022-12-22T09:24:37.208Z,9.80
2022-12-22T09:25:37.335Z,9.80
2022-12-22T09:26:37.473Z,9.80
2022-12-22T09:27:37.637Z,9.78
2022-12-22T09:28:37.786Z,9.71
2022-12-22T09:29:37.975Z,9.73
2022-12-22T09:30:38.054Z,9.77
2022-12-22T09:31:38.255Z,9.78
2022-12-22T09:32:38.327Z,9.80
2022-12-22T09:33:38.473Z,9.80
2022-12-22T09:34:39.690Z,9.77
2022-12-22T09:35:38.756Z,9.86
2022-12-22T09:36:38.897Z,9.91
2022-12-22T09:37:39.072Z,9.95
2022-12-22T09:38:39.217Z,9.96
2022-12-22T09:39:40.087Z,9.99
2022-12-22T09:40:39.589Z,10.04
2022-12-22T09:41:39.663Z,10.04
2022-12-22T09:42:39.713Z,10.04
2022-12-22T09:43:39.835Z,10.04
2022-12-22T09:44:39.934Z,10.01
2022-12-22T09:45:40.101Z,9.93
2022-12-22T09:46:40.237Z,9.92
2022-12-22T09:47:40.431Z,9.91
2022-12-22T09:48:40.555Z,9.88
2022-12-22T09:49:40.696Z,9.86
2022-12-22T09:50:40.861Z,9.88
2022-12-22T09:51:41.795Z,9.81
2022-12-22T09:52:41.192Z,9.88
2022-12-22T09:53:41.391Z,9.91
2022-12-22T09:54:41.463Z,9.88
2022-12-22T09:55:41.602Z,9.83
2022-12-22T09:56:41.739Z,9.83
2022-12-22T09:57:41.879Z,9.81
2022-12-22T09:58:41.984Z,9.83
2022-12-22T09:59:42.077Z,9.78
2022-12-22T10:00:42.202Z,9.77
2022-12-22T10:01:42.422Z,9.74
2022-12-22T10:02:42.579Z,9.71
2022-12-22T10:03:42.676Z,9.67
2022-12-22T10:04:42.697Z,9.62
2022-12-22T10:05:42.833Z,9.60
2022-12-22T10:06:42.961Z,9.62
2022-12-22T10:07:43.086Z,9.60
2022-12-22T10:08:43.256Z,9.59
2022-12-22T10:09:50.170Z,9.60
2022-12-22T10:10:44.500Z,9.63
2022-12-22T10:11:43.629Z,9.65
2022-12-22T10:12:43.781Z,9.70
2022-12-22T10:13:43.931Z,9.74
2022-12-22T10:14:44.045Z,9.77
2022-12-22T10:15:44.152Z,9.71
2022-12-22T10:16:44.326Z,9.71
2022-12-22T10:17:44.487Z,9.67
2022-12-22T10:18:44.531Z,9.68
2022-12-22T10:19:44.665Z,9.67
2022-12-22T10:20:44.812Z,9.63
2022-12-22T10:21:47.089Z,9.62
2022-12-22T10:22:45.032Z,9.56
2022-12-22T10:23:45.164Z,9.53
2022-12-22T10:24:45.348Z,9.52
2022-12-22T10:26:26.072Z,9.52
2022-12-22T10:26:46.592Z,9.50
2022-12-22T10:27:51.341Z,9.56
2022-12-22T10:28:46.813Z,9.56
2022-12-22T10:29:45.970Z,9.55
2022-12-22T10:30:46.128Z,9.55
2022-12-22T10:31:46.369Z,9.56
2022-12-22T10:32:46.421Z,9.55
2022-12-22T10:33:47.757Z,9.53
2022-12-22T10:34:46.701Z,9.52
2022-12-22T10:35:46.864Z,9.52
2022-12-22T10:36:46.953Z,9.53
2022-12-22T10:37:47.141Z,9.50
2022-12-22T10:38:47.249Z,9.50
2022-12-22T10:39:47.388Z,9.53
2022-12-22T10:40:47.595Z,9.55
2022-12-22T10:41:47.699Z,9.56
2022-12-22T10:42:47.797Z,9.55
2022-12-22T10:43:47.932Z,9.50
2022-12-22T10:44:48.047Z,9.53
2022-12-22T10:45:48.250Z,9.60
2022-12-22T10:46:48.319Z,9.63
2022-12-22T10:47:48.503Z,9.78
2022-12-22T10:48:48.737Z,9.89
2022-12-22T10:49:48.832Z,10.25
2022-12-22T10:50:48.871Z,10.83
2022-12-22T10:51:49.058Z,10.69
2022-12-22T10:52:49.136Z,10.44
2022-12-22T10:53:49.289Z,10.34
2022-12-22T10:54:49.390Z,10.20
2022-12-22T10:55:49.569Z,10.24
2022-12-22T10:56:50.430Z,10.28
2022-12-22T10:57:49.849Z,10.86
2022-12-22T10:58:49.919Z,10.90
2022-12-22T10:59:50.077Z,11.63
2022-12-22T11:00:50.210Z,12.18
2022-12-22T11:01:50.560Z,12.48
2022-12-22T11:02:50.534Z,12.61
2022-12-22T11:03:50.605Z,12.91
2022-12-22T11:04:50.707Z,13.38
2022-12-22T11:05:50.807Z,12.94
2022-12-22T11:06:50.948Z,12.49
2022-12-22T11:07:51.113Z,12.00
2022-12-22T11:08:51.961Z,11.85
2022-12-22T11:09:51.338Z,11.62
2022-12-22T11:10:51.516Z,11.59
2022-12-22T11:11:51.609Z,11.51
2022-12-22T11:12:51.730Z,11.36
2022-12-22T11:13:51.855Z,11.23
2022-12-22T11:14:51.938Z,11.09
2022-12-22T11:15:52.088Z,10.94
2022-12-22T11:16:52.250Z,10.87
2022-12-22T11:17:52.671Z,10.78
2022-12-22T11:18:52.427Z,10.70
2022-12-22T11:19:52.573Z,10.52
2022-12-22T11:20:52.669Z,10.46
2022-12-22T11:21:52.828Z,10.49
2022-12-22T11:22:52.950Z,10.31
2022-12-22T11:23:53.078Z,10.29
2022-12-22T11:24:53.170Z,10.29
2022-12-22T11:25:53.332Z,10.35
2022-12-22T11:26:53.417Z,10.36
2022-12-22T11:27:53.586Z,10.47
2022-12-22T11:28:53.708Z,10.44
2022-12-22T11:29:53.795Z,10.58
2022-12-22T11:30:54.754Z,10.68
2022-12-22T11:31:54.059Z,10.76
2022-12-22T11:32:54.195Z,10.80
2022-12-22T11:33:54.333Z,10.86
2022-12-22T11:34:54.428Z,10.90
2022-12-22T11:35:54.554Z,10.87
2022-12-22T11:36:54.674Z,10.95
2022-12-22T11:37:54.767Z,11.09
2022-12-22T11:38:54.936Z,11.20
2022-12-22T11:39:59.283Z,11.21
2022-12-22T11:40:55.147Z,11.39
2022-12-22T11:41:55.245Z,11.42
2022-12-22T11:42:55.400Z,11.45
2022-12-22T11:43:55.509Z,11.45
2022-12-22T11:44:56.377Z,11.35
2022-12-22T11:45:55.783Z,11.27
2022-12-22T11:46:55.938Z,11.17
2022-12-22T11:47:56.027Z,11.13
2022-12-22T11:48:56.133Z,11.01
2022-12-22T11:49:56.272Z,10.98
2022-12-22T11:51:06.280Z,10.93
2022-12-22T11:51:57.747Z,10.98
2022-12-22T11:52:56.652Z,10.98
2022-12-22T11:53:56.782Z,11.01
2022-12-22T11:54:56.972Z,10.95
2022-12-22T11:55:57.065Z,10.93
2022-12-22T11:56:57.177Z,10.94
2022-12-22T11:57:57.351Z,11.03
2022-12-22T11:58:57.466Z,11.01
2022-12-22T11:59:58.181Z,10.90
2022-12-22T12:01:16.226Z,10.90
2022-12-22T12:01:59.196Z,10.88
2022-12-22T12:02:58.141Z,10.88
2022-12-22T12:03:58.192Z,10.88
2022-12-22T12:04:58.280Z,10.91
2022-12-22T12:05:58.375Z,11.09
2022-12-22T12:06:58.504Z,11.23
2022-12-22T12:07:59.329Z,11.38
2022-12-22T12:09:00.163Z,11.54
2022-12-22T12:09:58.827Z,11.54
2022-12-22T12:10:59.016Z,11.45
2022-12-22T12:11:59.082Z,11.53
2022-12-22T12:12:59.223Z,11.60
2022-12-22T12:13:59.327Z,11.66
2022-12-22T12:14:59.425Z,11.78
2022-12-22T12:15:59.571Z,11.81
2022-12-22T12:16:59.780Z,11.87
2022-12-22T12:17:59.774Z,11.81
2022-12-22T12:18:59.920Z,11.79
2022-12-22T12:19:59.993Z,12.00
2022-12-22T12:21:00.147Z,11.69
2022-12-22T12:22:00.279Z,11.45
2022-12-22T12:23:01.359Z,11.49
2022-12-22T12:24:00.495Z,11.57
2022-12-22T12:25:01.382Z,11.69
2022-12-22T12:26:00.804Z,11.96
2022-12-22T12:27:00.909Z,12.62
2022-12-22T12:28:00.999Z,12.79
2022-12-22T12:29:01.144Z,12.96
2022-12-22T12:30:36.416Z,13.13
2022-12-22T12:31:02.433Z,13.51
2022-12-22T12:32:02.327Z,14.13
2022-12-22T12:33:01.665Z,14.66
2022-12-22T12:34:02.465Z,14.74
2022-12-22T12:35:01.852Z,14.94
2022-12-22T12:36:01.997Z,15.18
2022-12-22T12:37:02.087Z,15.09
2022-12-22T12:38:02.217Z,15.28
2022-12-22T12:39:09.868Z,15.22
2022-12-22T12:40:03.430Z,15.13
2022-12-22T12:41:02.592Z,15.03
2022-12-22T12:42:02.675Z,14.94
2022-12-22T12:43:02.813Z,15.00
2022-12-22T12:44:02.902Z,15.04
2022-12-22T12:45:03.782Z,15.25
2022-12-22T12:46:03.224Z,15.33
2022-12-22T12:47:03.380Z,15.58
2022-12-22T12:48:03.436Z,15.60
2022-12-22T12:49:03.560Z,15.91
2022-12-22T12:50:03.703Z,15.03
2022-12-22T12:51:03.835Z,15.05
2022-12-22T12:52:03.938Z,15.34
2022-12-22T12:53:04.030Z,15.28
2022-12-22T12:54:04.136Z,15.85
2022-12-22T12:55:04.318Z,16.23
2022-12-22T12:56:04.465Z,16.78
2022-12-22T12:57:04.550Z,16.91
2022-12-22T12:58:04.666Z,17.28
2022-12-22T12:59:04.778Z,17.10
2022-12-22T13:00:04.864Z,17.07
2022-12-22T13:01:05.115Z,16.65
2022-12-22T13:02:05.392Z,16.45
2022-12-22T13:03:05.332Z,16.81
2022-12-22T13:04:06.126Z,16.84
2022-12-22T13:05:05.501Z,16.90
2022-12-22T13:06:05.637Z,16.10
2022-12-22T13:07:05.736Z,15.23
2022-12-22T13:08:05.839Z,14.83
2022-12-22T13:09:39.944Z,15.01
2022-12-22T13:10:07.159Z,14.86
2022-12-22T13:11:06.187Z,14.63
2022-12-22T13:12:17.193Z,14.86
2022-12-22T13:13:07.481Z,15.22
2022-12-22T13:14:06.688Z,15.53
2022-12-22T13:15:06.712Z,14.72
2022-12-22T13:16:06.871Z,14.60